createdAt,value
2019-03-11T00:00:10.789Z,12.70
2019-03-11T00:04:23.341Z,12.37
2019-03-11T00:08:30.111Z,12.53
2019-03-11T00:12:38.185Z,12.80
2019-03-11T00:16:46.352Z,12.50
2019-03-11T00:20:54.179Z,13.07
2019-03-11T00:25:01.949Z,11.67
2019-03-11T00:29:10.186Z,11.47
2019-03-11T00:33:17.921Z,12.67
2019-03-11T00:37:26.039Z,13.03
2019-03-11T00:41:33.732Z,13.43
2019-03-11T00:45:41.530Z,11.20
2019-03-11T00:49:49.250Z,10.50
2019-03-11T00:53:57.983Z,10.97
2019-03-11T00:58:05.996Z,10.33
2019-03-11T01:02:14.307Z,10.63
2019-03-11T01:06:22.011Z,11.10
2019-03-11T01:10:30.242Z,10.63
2019-03-11T01:14:38.466Z,9.10
2019-03-11T01:18:46.246Z,9.00
2019-03-11T01:22:54.475Z,9.13
2019-03-11T01:27:02.787Z,8.73
2019-03-11T01:31:10.525Z,8.80
2019-03-11T01:35:18.744Z,8.57
2019-03-11T01:39:27.039Z,8.40
2019-03-11T01:43:34.953Z,8.20
2019-03-11T01:47:42.690Z,9.93
2019-03-11T01:51:50.402Z,8.23
2019-03-11T01:55:58.529Z,13.43
2019-03-11T02:00:08.745Z,11.47
2019-03-11T02:04:16.562Z,8.73
2019-03-11T02:08:24.734Z,10.93
2019-03-11T02:12:33.003Z,9.80
2019-03-11T02:16:40.721Z,7.33
2019-03-11T02:20:48.727Z,5.80
2019-03-11T02:24:56.459Z,5.30
2019-03-11T02:29:04.371Z,5.80
2019-03-11T02:33:12.677Z,6.37
2019-03-11T02:37:21.616Z,5.80
2019-03-11T02:41:29.534Z,6.50
2019-03-11T02:45:37.662Z,6.43
2019-03-11T02:49:45.873Z,6.40
2019-03-11T02:53:53.682Z,6.27
2019-03-11T02:58:01.698Z,6.70
2019-03-11T03:02:35.386Z,7.00
2019-03-11T03:06:43.196Z,6.60
2019-03-11T03:10:51.521Z,6.67
2019-03-11T03:14:59.451Z,6.67
2019-03-11T03:19:07.256Z,6.73
2019-03-11T03:23:15.071Z,6.90
2019-03-11T03:27:22.782Z,6.43
2019-03-11T03:31:31.098Z,6.93
2019-03-11T03:35:38.827Z,6.73
2019-03-11T03:39:46.516Z,7.17
2019-03-11T03:43:54.435Z,8.17
2019-03-11T03:48:02.598Z,7.40
2019-03-11T03:52:10.778Z,7.17
2019-03-11T03:56:18.893Z,7.30
2019-03-11T04:00:26.535Z,7.00
2019-03-11T04:04:34.910Z,6.70
2019-03-11T04:08:43.133Z,6.60
2019-03-11T04:12:50.864Z,6.70
2019-03-11T04:16:58.952Z,6.07
2019-03-11T04:21:06.903Z,7.27
2019-03-11T04:25:15.306Z,7.40
2019-03-11T04:29:24.008Z,7.83
2019-03-11T04:33:32.320Z,6.83
2019-03-11T04:37:40.252Z,7.77
2019-03-11T04:41:48.493Z,7.10
2019-03-11T04:45:56.307Z,7.93
2019-03-11T04:50:04.092Z,7.50
2019-03-11T04:54:12.522Z,8.00
2019-03-11T04:58:20.435Z,8.03
2019-03-11T05:02:28.704Z,8.50
2019-03-11T05:06:36.273Z,8.10
2019-03-11T05:10:44.494Z,7.60
2019-03-11T05:14:52.999Z,8.47
2019-03-11T05:19:01.145Z,9.17
2019-03-11T05:23:08.837Z,8.83
2019-03-11T05:27:17.083Z,8.97
2019-03-11T05:31:24.736Z,8.43
2019-03-11T05:35:32.577Z,8.43
2019-03-11T05:39:41.088Z,8.53
2019-03-11T05:43:48.825Z,7.83
2019-03-11T05:47:56.610Z,7.43
2019-03-11T05:52:04.453Z,8.47
2019-03-11T05:56:12.330Z,7.57
2019-03-11T06:00:24.527Z,7.70
2019-03-11T06:04:32.262Z,7.53
2019-03-11T06:08:40.578Z,8.07
2019-03-11T06:12:48.746Z,7.87
2019-03-11T06:16:56.640Z,7.67
2019-03-11T06:21:38.924Z,7.77
2019-03-11T06:25:46.849Z,7.30
2019-03-11T06:29:54.635Z,6.87
2019-03-11T06:34:02.570Z,7.73
2019-03-11T06:38:10.680Z,6.40
2019-03-11T06:42:18.303Z,7.20
2019-03-11T06:46:26.493Z,6.80
2019-03-11T06:50:34.719Z,6.57
2019-03-11T06:54:42.428Z,6.30
2019-03-11T06:58:51.669Z,5.80
2019-03-11T07:02:59.470Z,6.97
2019-03-11T07:07:07.285Z,5.60
2019-03-11T07:11:15.308Z,5.30
2019-03-11T07:15:23.105Z,6.37
2019-03-11T07:19:30.856Z,5.87
2019-03-11T07:23:38.656Z,6.03
2019-03-11T07:27:46.761Z,6.10
2019-03-11T07:31:54.891Z,5.87
2019-03-11T07:36:03.080Z,6.07
2019-03-11T07:40:10.911Z,5.00
2019-03-11T07:44:18.760Z,5.57
2019-03-11T07:48:26.927Z,6.10
2019-03-11T07:52:34.838Z,5.77
2019-03-11T07:56:43.072Z,4.43
2019-03-11T08:00:54.214Z,4.90
2019-03-11T08:05:00.421Z,4.80
2019-03-11T08:09:08.947Z,4.73
2019-03-11T08:13:16.857Z,4.80
2019-03-11T08:17:24.556Z,4.73
2019-03-11T08:21:34.310Z,4.57
2019-03-11T08:25:42.034Z,4.97
2019-03-11T08:29:49.859Z,4.20
2019-03-11T08:33:57.754Z,4.13
2019-03-11T08:38:06.601Z,4.40
2019-03-11T08:42:14.707Z,4.20
2019-03-11T08:46:23.119Z,3.90
2019-03-11T08:50:30.939Z,3.47
2019-03-11T08:54:38.431Z,3.20
2019-03-11T08:58:46.156Z,3.47
2019-03-11T09:02:53.958Z,4.07
2019-03-11T09:07:02.071Z,3.10
2019-03-11T09:11:10.801Z,3.27
2019-03-11T09:15:18.667Z,2.93
2019-03-11T09:19:26.556Z,3.00
2019-03-11T09:23:34.374Z,2.90
2019-03-11T09:27:42.265Z,3.13
2019-03-11T09:31:50.497Z,2.97
2019-03-11T09:35:58.300Z,3.03
2019-03-11T09:40:06.847Z,3.70
2019-03-11T09:44:15.148Z,3.87
2019-03-11T09:48:23.802Z,3.67
2019-03-11T09:52:31.795Z,2.60
2019-03-11T09:56:43.615Z,2.83
2019-03-11T10:00:49.669Z,2.60
2019-03-11T10:04:57.567Z,2.77
2019-03-11T10:09:07.361Z,2.53
2019-03-11T10:13:16.174Z,2.60
2019-03-11T10:17:23.985Z,2.43
2019-03-11T10:21:33.449Z,2.87
2019-03-11T10:25:41.240Z,3.73
2019-03-11T10:29:49.242Z,2.73
2019-03-11T10:33:57.056Z,3.17
2019-03-11T10:38:04.833Z,3.07
2019-03-11T10:42:13.373Z,2.70
2019-03-11T10:46:21.185Z,3.67
2019-03-11T10:50:29.310Z,2.80
2019-03-11T10:54:37.569Z,2.80
2019-03-11T10:58:45.226Z,2.60
2019-03-11T11:02:53.446Z,2.40
2019-03-11T11:07:01.668Z,2.90
2019-03-11T11:11:10.386Z,3.00
2019-03-11T11:15:19.783Z,3.13
2019-03-11T11:19:28.017Z,2.50
2019-03-11T11:23:35.936Z,2.70
2019-03-11T11:27:43.987Z,2.93
2019-03-11T11:31:53.743Z,2.90
2019-03-11T11:36:01.364Z,3.00
2019-03-11T11:40:12.550Z,2.77
2019-03-11T11:44:21.568Z,3.20
2019-03-11T11:48:29.306Z,3.60
2019-03-11T11:52:37.082Z,2.90
2019-03-11T11:56:45.016Z,3.03
2019-03-11T12:00:52.768Z,2.63
2019-03-11T12:05:00.512Z,2.73
2019-03-11T12:09:08.335Z,3.50
2019-03-11T12:13:18.109Z,3.23
2019-03-11T12:17:26.325Z,2.90
2019-03-11T12:21:33.925Z,4.70
2019-03-11T12:25:42.034Z,3.70
2019-03-11T12:29:49.844Z,3.10
2019-03-11T12:33:57.559Z,2.70
2019-03-11T12:38:05.760Z,2.20
2019-03-11T12:42:13.525Z,2.10
2019-03-11T12:46:21.287Z,2.87
2019-03-11T12:50:29.316Z,2.00
2019-03-11T12:54:37.021Z,2.77
2019-03-11T12:58:44.716Z,2.37
2019-03-11T13:02:52.826Z,2.97
2019-03-11T13:07:00.537Z,2.53
2019-03-11T13:11:08.288Z,2.93
2019-03-11T13:15:16.483Z,2.83
2019-03-11T13:19:24.111Z,2.50
2019-03-11T13:23:31.878Z,2.50
2019-03-11T13:27:40.197Z,2.60
2019-03-11T13:31:47.901Z,3.07
2019-03-11T13:35:56.910Z,2.83
2019-03-11T13:40:05.020Z,2.20
2019-03-11T13:44:12.778Z,2.93
2019-03-11T13:48:20.907Z,2.97
2019-03-11T13:52:28.896Z,2.80
2019-03-11T13:56:36.719Z,2.97
2019-03-11T14:00:56.004Z,2.80
2019-03-11T14:04:54.303Z,2.60
2019-03-11T14:09:02.023Z,3.10
2019-03-11T14:13:11.846Z,3.17
2019-03-11T14:17:19.643Z,2.97
2019-03-11T14:21:27.881Z,3.63
2019-03-11T14:25:35.692Z,3.60
2019-03-11T14:29:43.307Z,3.60
2019-03-11T14:33:51.460Z,3.53
2019-03-11T14:37:59.620Z,3.20
2019-03-11T14:42:07.416Z,3.30
2019-03-11T14:46:15.273Z,3.20
2019-03-11T14:50:23.169Z,3.00
2019-03-11T14:54:30.886Z,3.37
2019-03-11T14:58:38.827Z,3.53
2019-03-11T15:02:47.216Z,3.30
2019-03-11T15:06:55.018Z,3.73
2019-03-11T15:11:03.317Z,4.40
2019-03-11T15:15:13.232Z,4.13
2019-03-11T15:19:21.622Z,3.93
2019-03-11T15:23:30.042Z,3.97
2019-03-11T15:27:37.853Z,4.40
2019-03-11T15:31:45.573Z,4.60
2019-03-11T15:35:53.984Z,4.00
2019-03-11T15:40:02.050Z,5.17
2019-03-11T15:44:10.447Z,5.10
2019-03-11T15:48:18.658Z,4.57
2019-03-11T15:52:26.457Z,4.43
2019-03-11T15:56:34.684Z,5.03
2019-03-11T16:00:42.831Z,5.03
2019-03-11T16:04:50.790Z,4.43
2019-03-11T16:08:59.038Z,6.47
2019-03-11T16:13:06.755Z,5.23
2019-03-11T16:17:15.205Z,4.90
2019-03-11T16:21:24.607Z,5.47
2019-03-11T16:25:32.416Z,5.27
2019-03-11T16:29:40.531Z,4.90
2019-03-11T16:33:48.643Z,6.10
2019-03-11T16:37:56.373Z,6.47
2019-03-11T16:42:04.811Z,8.57
2019-03-11T16:46:13.051Z,15.57
2019-03-11T16:50:21.145Z,21.83
2019-03-11T16:54:29.444Z,23.23
2019-03-11T16:58:37.667Z,24.80
2019-03-11T17:02:45.438Z,20.93
2019-03-11T17:06:53.500Z,24.03
2019-03-11T17:11:01.512Z,20.60
2019-03-11T17:15:09.464Z,16.83
2019-03-11T17:19:17.331Z,20.20
2019-03-11T17:23:24.856Z,8.93
2019-03-11T17:27:33.168Z,7.63
2019-03-11T17:31:42.311Z,6.37
2019-03-11T17:35:49.961Z,5.30
2019-03-11T17:39:57.911Z,4.80
2019-03-11T17:44:05.776Z,4.37
2019-03-11T17:48:13.631Z,9.37
2019-03-11T17:52:21.780Z,22.67
2019-03-11T17:56:29.409Z,16.40
2019-03-11T18:00:40.568Z,24.20
2019-03-11T18:04:48.575Z,30.63
2019-03-11T18:08:56.575Z,17.90
2019-03-11T18:13:04.739Z,19.17
2019-03-11T18:17:13.142Z,37.50
2019-03-11T18:21:21.020Z,25.57
2019-03-11T18:25:29.337Z,16.27
2019-03-11T18:29:37.102Z,22.33
2019-03-11T18:33:44.787Z,21.37
2019-03-11T18:38:03.615Z,15.10
2019-03-11T18:42:03.598Z,9.30
2019-03-11T18:46:11.503Z,8.20
2019-03-11T18:50:20.338Z,12.83
2019-03-11T18:54:28.105Z,16.03
2019-03-11T18:58:36.359Z,8.63
2019-03-11T19:02:44.808Z,10.20
2019-03-11T19:06:52.420Z,21.73
2019-03-11T19:11:00.232Z,12.93
2019-03-11T19:15:09.339Z,6.10
2019-03-11T19:19:17.155Z,5.43
2019-03-11T19:23:24.875Z,6.17
2019-03-11T19:27:34.078Z,6.50
2019-03-11T19:31:41.815Z,8.30
2019-03-11T19:35:49.862Z,10.90
2019-03-11T19:39:57.823Z,10.07
2019-03-11T19:44:05.750Z,11.00
2019-03-11T19:48:13.602Z,10.03
2019-03-11T19:52:21.183Z,8.87
2019-03-11T19:56:29.162Z,8.33
2019-03-11T20:00:37.582Z,9.80
2019-03-11T20:04:45.379Z,7.47
2019-03-11T20:08:53.566Z,7.30
2019-03-11T20:13:01.942Z,7.00
2019-03-11T20:17:11.044Z,8.53
2019-03-11T20:21:19.021Z,6.47
2019-03-11T20:25:27.867Z,6.97
2019-03-11T20:29:35.362Z,5.37
2019-03-11T20:33:43.566Z,6.53
2019-03-11T20:37:51.757Z,8.20
2019-03-11T20:41:59.601Z,4.90
2019-03-11T20:46:07.553Z,4.60
2019-03-11T20:50:15.497Z,5.30
2019-03-11T20:54:23.214Z,6.00
2019-03-11T20:58:31.463Z,5.30
2019-03-11T21:02:39.076Z,3.70
2019-03-11T21:06:47.229Z,5.77
2019-03-11T21:10:57.063Z,6.03
2019-03-11T21:15:05.000Z,7.20
2019-03-11T21:19:13.388Z,11.63
2019-03-11T21:23:22.051Z,8.83
2019-03-11T21:27:29.680Z,6.57
2019-03-11T21:31:38.002Z,4.10
2019-03-11T21:35:46.075Z,4.00
2019-03-11T21:39:53.800Z,4.37
2019-03-11T21:44:02.057Z,4.27
2019-03-11T21:48:09.910Z,4.60
2019-03-11T21:52:17.571Z,6.07
2019-03-11T21:56:25.979Z,7.23
2019-03-11T22:00:35.184Z,6.27
2019-03-11T22:04:43.245Z,8.57
2019-03-11T22:08:51.152Z,7.80
2019-03-11T22:12:58.869Z,8.20
2019-03-11T22:17:07.083Z,7.97
2019-03-11T22:21:15.205Z,5.67
2019-03-11T22:25:23.049Z,4.60
2019-03-11T22:29:31.330Z,4.27
2019-03-11T22:33:39.641Z,4.50
2019-03-11T22:37:47.366Z,4.63
2019-03-11T22:41:55.162Z,4.43
2019-03-11T22:46:03.393Z,5.40
2019-03-11T22:50:11.295Z,5.70
2019-03-11T22:54:19.509Z,5.10
2019-03-11T22:58:27.128Z,5.70
2019-03-11T23:02:40.075Z,5.27
2019-03-11T23:06:44.415Z,5.13
2019-03-11T23:10:52.610Z,6.47
2019-03-11T23:15:00.446Z,7.90
2019-03-11T23:19:08.333Z,7.33
2019-03-11T23:23:16.040Z,8.43
2019-03-11T23:27:24.248Z,8.93
2019-03-11T23:31:33.636Z,7.93
2019-03-11T23:35:41.293Z,6.00
2019-03-11T23:39:49.364Z,7.10
2019-03-11T23:43:58.775Z,5.33
2019-03-11T23:48:06.482Z,6.73
2019-03-11T23:52:14.391Z,6.47
2019-03-11T23:56:22.093Z,6.53
